createdAt,value
2018-10-03T00:00:55.034Z,11.00
2018-10-03T00:05:58.750Z,10.90
2018-10-03T00:11:02.318Z,10.90
2018-10-03T00:16:05.907Z,10.90
2018-10-03T00:21:09.570Z,10.90
2018-10-03T00:26:13.298Z,10.90
2018-10-03T00:31:16.967Z,11.00
2018-10-03T00:36:21.566Z,10.90
2018-10-03T00:41:25.219Z,10.80
2018-10-03T00:46:28.887Z,10.80
2018-10-03T00:51:32.476Z,10.70
2018-10-03T00:56:37.115Z,10.70
2018-10-03T01:01:40.629Z,10.80
2018-10-03T01:06:44.230Z,10.90
2018-10-03T01:11:47.757Z,11.10
2018-10-03T01:16:51.317Z,10.90
2018-10-03T01:21:54.942Z,10.70
2018-10-03T01:26:58.825Z,10.80
2018-10-03T01:32:02.425Z,10.80
2018-10-03T01:37:06.138Z,10.70
2018-10-03T01:42:09.748Z,10.90
2018-10-03T01:47:17.074Z,11.00
2018-10-03T01:52:20.638Z,10.90
2018-10-03T01:57:24.210Z,10.70
2018-10-03T02:02:27.813Z,10.70
2018-10-03T02:07:31.409Z,10.60
2018-10-03T02:12:34.974Z,10.70
2018-10-03T02:17:38.628Z,10.80
2018-10-03T02:22:42.187Z,11.00
2018-10-03T02:27:45.731Z,11.10
2018-10-03T02:32:49.300Z,10.80
2018-10-03T02:37:52.902Z,10.90
2018-10-03T02:42:56.435Z,10.90
2018-10-03T02:48:00.043Z,10.80
2018-10-03T02:53:04.719Z,10.80
2018-10-03T02:58:08.262Z,10.90
2018-10-03T03:03:11.873Z,11.00
2018-10-03T03:08:16.126Z,10.90
2018-10-03T03:13:19.662Z,10.90
2018-10-03T03:18:23.297Z,10.90
2018-10-03T03:23:26.870Z,10.90
2018-10-03T03:28:30.606Z,11.10
2018-10-03T03:33:34.165Z,11.00
2018-10-03T03:38:37.781Z,10.90
2018-10-03T03:43:41.446Z,10.90
2018-10-03T03:48:45.104Z,10.60
2018-10-03T03:53:48.717Z,10.50
2018-10-03T03:58:52.291Z,10.60
2018-10-03T04:03:55.878Z,10.60
2018-10-03T04:08:59.683Z,10.60
2018-10-03T04:14:03.274Z,10.70
2018-10-03T04:19:06.884Z,10.70
2018-10-03T04:24:11.749Z,10.80
2018-10-03T04:29:15.343Z,10.90
2018-10-03T04:34:18.999Z,10.90
2018-10-03T04:39:22.562Z,11.00
2018-10-03T04:44:28.174Z,11.10
2018-10-03T04:49:31.738Z,11.10
2018-10-03T04:54:35.309Z,11.20
2018-10-03T04:59:38.894Z,11.20
2018-10-03T05:04:42.544Z,11.30
2018-10-03T05:09:46.169Z,11.40
2018-10-03T05:14:49.880Z,11.30
2018-10-03T05:19:53.512Z,11.30
2018-10-03T05:24:57.132Z,11.20
2018-10-03T05:30:00.959Z,11.10
2018-10-03T05:35:04.721Z,11.00
2018-10-03T05:40:08.359Z,11.00
2018-10-03T05:45:11.955Z,10.80
2018-10-03T05:50:15.530Z,10.70
2018-10-03T05:55:19.258Z,10.70
2018-10-03T06:00:22.876Z,10.60
2018-10-03T06:05:26.529Z,10.60
2018-10-03T06:10:30.290Z,10.70
2018-10-03T06:15:34.855Z,10.80
2018-10-03T06:20:38.559Z,10.90
2018-10-03T06:25:42.107Z,11.00
2018-10-03T06:30:45.682Z,11.00
2018-10-03T06:35:49.242Z,10.90
2018-10-03T06:40:52.884Z,11.10
2018-10-03T06:45:56.510Z,11.20
2018-10-03T06:51:00.120Z,11.40
2018-10-03T06:56:04.003Z,11.20
2018-10-03T07:01:07.689Z,11.60
2018-10-03T07:06:11.347Z,11.80
2018-10-03T07:11:18.346Z,12.00
2018-10-03T07:16:21.981Z,12.00
2018-10-03T07:21:25.600Z,12.00
2018-10-03T07:26:29.244Z,12.30
2018-10-03T07:31:32.932Z,12.40
2018-10-03T07:36:36.632Z,12.50
2018-10-03T07:41:40.221Z,12.60
2018-10-03T07:46:43.885Z,12.60
2018-10-03T07:51:47.575Z,12.70
2018-10-03T07:56:51.159Z,13.00
2018-10-03T08:01:54.819Z,13.10
2018-10-03T08:06:58.517Z,13.10
2018-10-03T08:12:02.233Z,13.40
2018-10-03T08:17:05.952Z,13.60
2018-10-03T08:22:10.074Z,13.50
2018-10-03T08:27:13.799Z,13.70
2018-10-03T08:32:17.470Z,13.90
2018-10-03T08:37:20.977Z,14.20
2018-10-03T08:42:24.669Z,14.90
2018-10-03T08:52:36.194Z,15.40
2018-10-03T08:57:41.222Z,15.50
2018-10-03T09:02:44.879Z,15.00
2018-10-03T09:07:48.540Z,14.70
2018-10-03T09:12:54.455Z,15.10
2018-10-03T09:17:59.571Z,15.40
2018-10-03T09:23:03.484Z,14.70
2018-10-03T09:28:07.558Z,14.40
2018-10-03T09:33:11.182Z,15.00
2018-10-03T09:38:14.910Z,15.00
2018-10-03T09:43:18.554Z,15.30
2018-10-03T09:48:22.431Z,14.60
2018-10-03T09:53:26.079Z,14.70
2018-10-03T09:58:30.749Z,14.70
2018-10-03T10:03:34.666Z,14.30
2018-10-03T10:08:38.390Z,14.20
2018-10-03T10:13:46.369Z,14.20
2018-10-03T10:18:50.035Z,14.50
2018-10-03T10:23:53.846Z,15.00
2018-10-03T10:28:57.730Z,15.50
2018-10-03T10:34:04.076Z,17.00
2018-10-03T10:39:10.446Z,15.90
2018-10-03T10:44:14.191Z,15.50
2018-10-03T10:49:18.023Z,15.40
2018-10-03T10:54:22.215Z,14.90
2018-10-03T10:59:25.942Z,15.70
2018-10-03T11:04:29.836Z,16.50
2018-10-03T11:09:33.786Z,16.20
2018-10-03T11:14:41.104Z,15.80
2018-10-03T11:19:44.843Z,15.70
2018-10-03T11:24:48.616Z,15.30
2018-10-03T11:29:52.359Z,14.90
2018-10-03T11:34:57.034Z,15.10
2018-10-03T11:40:00.651Z,15.50
2018-10-03T11:45:04.436Z,15.80
2018-10-03T11:50:08.302Z,15.50
2018-10-03T11:55:12.135Z,15.40
2018-10-03T12:00:19.063Z,15.30
2018-10-03T12:05:22.666Z,15.30
2018-10-03T12:10:27.395Z,15.10
2018-10-03T12:15:32.641Z,15.60
2018-10-03T12:20:36.356Z,15.60
2018-10-03T12:25:40.951Z,15.20
2018-10-03T12:30:44.538Z,15.20
2018-10-03T12:35:48.086Z,15.10
2018-10-03T12:40:51.966Z,15.20
2018-10-03T12:45:57.839Z,15.30
2018-10-03T12:51:01.540Z,15.40
2018-10-03T12:56:05.371Z,15.20
2018-10-03T13:01:09.182Z,14.90
2018-10-03T13:06:13.761Z,14.80
2018-10-03T13:11:24.526Z,14.60
2018-10-03T13:16:28.313Z,14.80
2018-10-03T13:21:31.974Z,15.10
2018-10-03T13:26:35.585Z,15.00
2018-10-03T13:31:39.499Z,15.10
2018-10-03T13:36:43.102Z,15.10
2018-10-03T13:41:46.667Z,15.00
2018-10-03T13:46:51.343Z,14.90
2018-10-03T13:51:54.850Z,14.90
2018-10-03T13:56:58.471Z,14.60
2018-10-03T14:02:02.152Z,14.60
2018-10-03T14:07:05.775Z,14.50
2018-10-03T14:12:09.412Z,14.50
2018-10-03T14:17:13.019Z,14.70
2018-10-03T14:22:16.593Z,14.70
2018-10-03T14:27:20.187Z,14.70
2018-10-03T14:32:23.922Z,14.70
2018-10-03T14:37:27.459Z,14.70
2018-10-03T14:42:31.071Z,14.60
2018-10-03T14:47:34.785Z,14.60
2018-10-03T14:52:38.370Z,14.70
2018-10-03T14:57:41.984Z,14.90
2018-10-03T15:02:45.543Z,14.70
2018-10-03T15:07:49.110Z,14.70
2018-10-03T15:12:52.699Z,14.50
2018-10-03T15:17:56.281Z,14.40
2018-10-03T15:22:59.843Z,14.40
2018-10-03T15:28:03.398Z,14.10
2018-10-03T15:33:06.954Z,14.10
2018-10-03T15:38:10.506Z,14.10
2018-10-03T15:43:14.060Z,14.00
2018-10-03T15:48:17.684Z,13.80
2018-10-03T15:53:21.238Z,13.70
2018-10-03T15:58:24.778Z,13.70
2018-10-03T16:03:28.322Z,13.80
2018-10-03T16:08:31.946Z,13.80
2018-10-03T16:13:35.496Z,13.40
2018-10-03T16:18:39.201Z,13.40
2018-10-03T16:23:42.754Z,13.20
2018-10-03T16:28:46.323Z,13.00
2018-10-03T16:33:49.959Z,12.80
2018-10-03T16:38:53.620Z,12.70
2018-10-03T16:43:57.143Z,12.60
2018-10-03T16:49:00.694Z,12.70
2018-10-03T16:54:04.342Z,12.50
2018-10-03T16:59:08.048Z,12.30
2018-10-03T17:04:11.754Z,12.10
2018-10-03T17:09:16.350Z,11.90
2018-10-03T17:14:24.396Z,11.80
2018-10-03T17:19:28.109Z,11.60
2018-10-03T17:24:35.249Z,11.50
2018-10-03T17:29:38.865Z,11.40
2018-10-03T17:34:42.466Z,11.20
2018-10-03T17:39:46.367Z,11.10
2018-10-03T17:44:50.069Z,11.10
2018-10-03T17:49:54.902Z,11.00
2018-10-03T17:54:59.482Z,10.70
2018-10-03T18:00:03.236Z,10.60
2018-10-03T18:05:06.883Z,10.40
2018-10-03T18:10:10.534Z,10.30
2018-10-03T18:15:14.106Z,10.20
2018-10-03T18:20:17.924Z,10.10
2018-10-03T18:25:21.558Z,10.00
2018-10-03T18:30:25.110Z,10.00
2018-10-03T18:35:28.732Z,10.20
2018-10-03T18:40:32.435Z,10.20
2018-10-03T18:45:36.034Z,10.10
2018-10-03T18:50:39.714Z,10.20
2018-10-03T18:55:43.394Z,10.00
2018-10-03T19:00:46.966Z,9.70
2018-10-03T19:05:51.613Z,9.70
2018-10-03T19:10:56.377Z,9.50
2018-10-03T19:16:01.072Z,9.40
2018-10-03T19:21:04.986Z,9.20
2018-10-03T19:26:08.641Z,9.10
2018-10-03T19:31:12.307Z,9.10
2018-10-03T19:36:16.181Z,9.10
2018-10-03T19:41:19.966Z,8.90
2018-10-03T19:46:23.582Z,8.70
2018-10-03T19:51:27.170Z,8.70
2018-10-03T19:56:31.822Z,8.80
2018-10-03T20:01:35.415Z,8.70
2018-10-03T20:06:39.014Z,7.50
2018-10-03T20:11:42.715Z,8.30
2018-10-03T20:16:46.848Z,8.00
2018-10-03T20:21:50.599Z,8.00
2018-10-03T20:26:54.256Z,8.10
2018-10-03T20:31:58.953Z,8.10
2018-10-03T20:37:02.655Z,8.00
2018-10-03T20:42:06.282Z,7.90
2018-10-03T20:47:09.901Z,8.00
2018-10-03T20:52:13.571Z,7.90
2018-10-03T20:57:17.286Z,7.60
2018-10-03T21:02:20.899Z,7.60
2018-10-03T21:07:24.530Z,7.70
2018-10-03T21:12:28.097Z,7.50
2018-10-03T21:17:31.826Z,7.30
2018-10-03T21:22:35.459Z,7.30
2018-10-03T21:27:39.256Z,7.40
2018-10-03T21:32:42.851Z,7.10
2018-10-03T21:37:46.542Z,7.30
2018-10-03T21:42:50.109Z,7.30
2018-10-03T21:47:53.668Z,7.10
2018-10-03T21:52:57.512Z,7.00
2018-10-03T21:58:01.110Z,7.00
2018-10-03T22:03:05.740Z,6.00
2018-10-03T22:08:09.403Z,7.10
2018-10-03T22:13:13.215Z,7.10
2018-10-03T22:18:16.800Z,6.80
2018-10-03T22:23:20.443Z,6.60
2018-10-03T22:28:24.011Z,6.80
2018-10-03T22:33:27.627Z,7.00
2018-10-03T22:38:31.370Z,6.70
2018-10-03T22:43:35.608Z,6.80
2018-10-03T22:48:41.247Z,6.60
2018-10-03T22:53:44.873Z,6.70
2018-10-03T22:58:48.579Z,6.60
2018-10-03T23:03:53.158Z,6.50
2018-10-03T23:08:57.082Z,6.40
2018-10-03T23:14:01.033Z,6.40
2018-10-03T23:19:04.747Z,6.30
2018-10-03T23:24:08.686Z,6.20
2018-10-03T23:29:14.491Z,6.40
2018-10-03T23:34:27.273Z,6.60
2018-10-03T23:39:30.905Z,6.30
2018-10-03T23:44:36.612Z,6.10
2018-10-03T23:49:41.515Z,6.00
2018-10-03T23:54:45.171Z,6.00
2018-10-03T23:59:48.995Z,6.00
